Tecumseh — WTW9257 — position and weather

sailwx.info

Track history (hours):
 
Tides and Currents Weather Stations Pressure Air Temp Water Temp Dewpoint Dewpoint Depression Visibility Wind Speed Wind Dir Waves Ship Positions

Tecumseh

Owner: SAUSE BROS INC, COOS BAY, OR. More information available from US FCC via Universal Licensing System and Coast Guard Vessel Documentation Center.

Last reported at 2014-Oct-31 07:33 UTC. Time now 2014-Oct-31 20:04 UTC.
Position N 45°33' W 122°42'.

Length 90 m; draft 4.9 m.

Type: Towing. MMSI: 367133160.

Date/timePositionNaut miles runAvg speedWind from/ knotsBaromVisibWave heightAir tempDewpointWater temp
2014-Oct-31 07:33N 45°33' W 122°42'0 0.0
2014-Oct-31 06:33N 45°33' W 122°42'0 0.0
2014-Oct-31 05:33N 45°33' W 122°42'0 0.0
2014-Oct-31 04:33N 45°33' W 122°42'0 0.0
2014-Oct-31 03:33N 45°33' W 122°42'0 0.0
2014-Oct-31 02:33N 45°33' W 122°42'0 0.0
2014-Oct-31 01:33N 45°33' W 122°42'0 0.0
2014-Oct-31 00:33N 45°33' W 122°42'0 0.0
2014-Oct-30 23:33N 45°33' W 122°42'0 0.0
2014-Oct-30 22:33N 45°33' W 122°42'0 0.0
2014-Oct-30 21:33N 45°33' W 122°42'0 0.0
2014-Oct-30 20:33N 45°33' W 122°42'0 0.0
2014-Oct-30 19:33N 45°33' W 122°42'0 0.0
2014-Oct-30 18:33N 45°33' W 122°42'0 0.0
2014-Oct-30 17:33N 45°33' W 122°42'0 0.0
2014-Oct-30 16:33N 45°33' W 122°42'0 0.0
2014-Oct-30 15:33N 45°33' W 122°42'0 0.0
2014-Oct-30 14:33N 45°33' W 122°42'0 0.0
2014-Oct-30 13:33N 45°33' W 122°42'0 0.0
2014-Oct-30 12:33N 45°33' W 122°42'0 0.0
2014-Oct-30 11:33N 45°33' W 122°42'0 0.0
2014-Oct-30 10:33N 45°33' W 122°42'0 0.0
2014-Oct-30 09:33N 45°33' W 122°42'0 0.0
2014-Oct-30 08:33N 45°33' W 122°42'0 0.0
2014-Oct-30 07:33N 45°33' W 122°42'0 0.0
2014-Oct-30 06:33N 45°33' W 122°42'0 0.0
2014-Oct-30 05:32N 45°33' W 122°42'0 0.0
2014-Oct-30 04:33N 45°33' W 122°42'0 0.0
2014-Oct-30 03:33N 45°33' W 122°42'0 0.0
2014-Oct-30 02:33N 45°33' W 122°42'0 0.0
2014-Oct-30 01:33N 45°33' W 122°42'0 0.0
2014-Oct-30 00:33N 45°33' W 122°42'0 0.0
2014-Oct-29 23:33N 45°33' W 122°42'0 0.0
2014-Oct-29 22:33N 45°33' W 122°42'0 0.0
2014-Oct-29 21:33N 45°33' W 122°42'0 0.0
2014-Oct-29 20:33N 45°33' W 122°42'0 0.0
2014-Oct-29 19:33N 45°33' W 122°42'0 0.0
2014-Oct-29 18:33N 45°33' W 122°42'0 0.0
2014-Oct-29 17:33N 45°33' W 122°42'0 0.0
2014-Oct-29 16:33N 45°33' W 122°42'0 0.0
2014-Oct-29 15:33N 45°33' W 122°42'0 0.0
2014-Oct-29 14:33N 45°33' W 122°42'0 0.0
2014-Oct-29 13:33N 45°33' W 122°42'0 0.0
2014-Oct-29 12:33N 45°33' W 122°42'0 0.0
2014-Oct-29 11:33N 45°33' W 122°42'0 0.0
2014-Oct-29 10:33N 45°33' W 122°42'0 0.0
2014-Oct-29 09:33N 45°33' W 122°42'4 3.9
2014-Oct-29 08:33N 45°36' W 122°46'8 8.3
2014-Oct-29 07:33N 45°44' W 122°46'9 9.0
2014-Oct-29 06:33N 45°53' W 122°48'9 9.1
2014-Oct-29 05:33N 46°01' W 122°52'8 8.3
2014-Oct-29 04:33N 46°08' W 122°60'9 8.7
2014-Oct-29 03:33N 46°11' W 123°12'8 8.5
2014-Oct-29 02:33N 46°09' W 123°24'8 8.2
2014-Oct-29 01:33N 46°16' W 123°31'10 9.7
2014-Oct-29 00:33N 46°14' W 123°44'9 9.1
2014-Oct-28 23:33N 46°13' W 123°57'9 8.7
2014-Oct-28 22:33N 46°13' W 124°10'7 7.3
2014-Oct-28 21:33N 46°20' W 124°14'8 8.2
2014-Oct-28 20:33N 46°28' W 124°16'8 7.9
2014-Oct-28 19:33N 46°36' W 124°18'8 7.8
2014-Oct-28 18:33N 46°44' W 124°19'8 7.8
2014-Oct-28 17:33N 46°51' W 124°21'8 7.9
2014-Oct-28 16:33N 46°59' W 124°24'77 6.9
2014-Oct-28 05:24N 48°14' W 124°52'910.2
2014-Oct-28 04:32N 48°23' W 124°49'9 8.9
2014-Oct-28 03:34N 48°24' W 124°36'1211.9
2014-Oct-28 02:33N 48°19' W 124°20'6 5.9
2014-Oct-28 01:33N 48°16' W 124°12'4 3.5
2014-Oct-28 00:30N 48°15' W 124°07'4 4.0
2014-Oct-27 23:27N 48°13' W 124°02'2 2.1
2014-Oct-27 22:30N 48°13' W 123°59'5 4.3
2014-Oct-27 21:26N 48°15' W 124°05'3 3.9
2014-Oct-27 20:33N 48°16' W 124°09'4 3.5
2014-Oct-27 19:31N 48°18' W 124°15'3 3.3
2014-Oct-27 18:33N 48°19' W 124°19'0 0.4
2014-Oct-27 17:33N 48°19' W 124°19'4 4.3
2014-Oct-27 16:33N 48°17' W 124°13'3 3.5
2014-Oct-27 15:33N 48°15' W 124°08'3 2.8
2014-Oct-27 14:29N 48°14' W 124°04'3 2.7
2014-Oct-27 13:28N 48°13' W 124°00'3 3.7
2014-Oct-27 12:32N 48°15' W 124°05'6 6.2
2014-Oct-27 11:33N 48°18' W 124°13'6 6.3
2014-Oct-27 10:34N 48°21' W 124°21'2 2.1
2014-Oct-27 09:33N 48°20' W 124°24'3 3.4
2014-Oct-27 08:34N 48°19' W 124°20'4 4.4
2014-Oct-27 07:33N 48°17' W 124°14'5 4.8
2014-Oct-27 06:33N 48°15' W 124°07'5 4.9
2014-Oct-27 05:31N 48°13' W 124°00'5 5.4
2014-Oct-27 04:33N 48°12' W 123°53'5 5.4
2014-Oct-27 03:33N 48°12' W 123°45'5 4.9
2014-Oct-27 02:33N 48°12' W 123°38'4 4.2
2014-Oct-27 01:33N 48°12' W 123°31'3 3.2
2014-Oct-27 00:33N 48°11' W 123°26'3 2.6
2014-Oct-26 23:33N 48°11' W 123°22'2 2.5
2014-Oct-26 22:33N 48°11' W 123°19'3 2.9
2014-Oct-26 21:33N 48°12' W 123°14'3 3.4
2014-Oct-26 20:33N 48°12' W 123°09'4 4.2
2014-Oct-26 19:33N 48°13' W 123°03'5 4.8
2014-Oct-26 18:32N 48°12' W 122°56'6 6.0
2014-Oct-26 17:32N 48°11' W 122°47'9 7.9
2014-Oct-26 16:23N 48°04' W 122°38'4 7.6
2014-Oct-26 15:51N 48°00' W 122°36'2 7.4
2014-Oct-26 15:33N 47°59' W 122°35'2 8.1
2014-Oct-26 15:21N 47°57' W 122°33'5 6.1
2014-Oct-26 14:33N 47°54' W 122°28'0 6.4
2014-Oct-26 14:31N 47°53' W 122°28'7 7.0
2014-Oct-26 13:33N 47°47' W 122°26'0 6.7
2014-Oct-26 13:31N 47°47' W 122°26'7 7.1
2014-Oct-26 12:34N 47°40' W 122°27'0 5.9
2014-Oct-26 12:30N 47°40' W 122°27'6 6.7
2014-Oct-26 11:34N 47°33' W 122°26'0 6.0
2014-Oct-26 11:30N 47°33' W 122°26'6 6.7
2014-Oct-26 10:34N 47°27' W 122°23'0 7.3
2014-Oct-26 10:30N 47°26' W 122°23'5 5.8
2014-Oct-26 09:34N 47°21' W 122°24'4 4.0
2014-Oct-26 08:33N 47°17' W 122°26'2 1.5
2014-Oct-26 07:12N 47°16' W 122°24'0 0.1
2014-Oct-26 06:33N 47°16' W 122°24'2 1.5
2014-Oct-26 05:33N 47°16' W 122°26'0 0.0
2014-Oct-26 04:33N 47°16' W 122°26'0 0.0
2014-Oct-26 03:33N 47°16' W 122°26'0 0.0
2014-Oct-26 02:30N 47°16' W 122°26'0 0.0
2014-Oct-26 01:27N 47°16' W 122°26'0 0.0
2014-Oct-26 00:33N 47°16' W 122°26'0 0.0
2014-Oct-25 23:33N 47°16' W 122°26'0 0.0
2014-Oct-25 22:33N 47°16' W 122°26'0 0.0
2014-Oct-25 21:33N 47°16' W 122°26'0 0.0
2014-Oct-25 20:24N 47°16' W 122°26'0 0.0
2014-Oct-25 19:30N 47°16' W 122°26'0 0.0
2014-Oct-25 18:33N 47°16' W 122°26'0 0.0
2014-Oct-25 17:24N 47°16' W 122°26'0 0.0
2014-Oct-25 16:33N 47°16' W 122°26'0 0.0
2014-Oct-25 15:30N 47°16' W 122°26'0 0.0
2014-Oct-25 14:27N 47°16' W 122°26'0 0.0
2014-Oct-25 13:27N 47°16' W 122°26'0 0.0
2014-Oct-25 12:33N 47°16' W 122°26'0 0.0
2014-Oct-25 11:30N 47°16' W 122°26'0 0.0
2014-Oct-25 10:33N 47°16' W 122°26'0 0.0
2014-Oct-25 09:33N 47°16' W 122°26'0 0.0
2014-Oct-25 08:24N 47°16' W 122°26'0 0.0
2014-Oct-25 06:15N 47°16' W 122°26'1 0.7
2014-Oct-25 04:33N 47°17' W 122°25'1 0.6
2014-Oct-25 03:15N 47°16' W 122°24'1 1.8
2014-Oct-25 02:33N 47°17' W 122°25'1 1.3
2014-Oct-25 01:46N 47°17' W 122°27'1 4.4
2014-Oct-25 01:33N 47°18' W 122°28'6 6.1
2014-Oct-25 00:33N 47°23' W 122°22'2 6.6
2014-Oct-25 00:11N 47°25' W 122°23'4 7.1
2014-Oct-24 23:33N 47°29' W 122°26'0 6.6
2014-Oct-24 23:32N 47°29' W 122°26'7 7.1
2014-Oct-24 22:33N 47°36' W 122°28'0 6.5
2014-Oct-24 22:31N 47°36' W 122°28'7 6.9
2014-Oct-24 21:33N 47°43' W 122°28'0 6.3
2014-Oct-24 21:31N 47°43' W 122°27'7 7.0
2014-Oct-24 20:33N 47°50' W 122°28'3 6.8
2014-Oct-24 20:10N 47°53' W 122°29'4 6.5
2014-Oct-24 19:33N 47°56' W 122°32'0 6.0
2014-Oct-24 19:30N 47°56' W 122°33'6 5.9
2014-Oct-24 18:33N 48°01' W 122°38'15 4.7
2014-Oct-24 15:17N 48°14' W 122°49'11 6.4
2014-Oct-24 13:30N 48°25' W 122°45'5 5.2
2014-Oct-24 12:33N 48°30' W 122°45'4 3.8
2014-Oct-24 11:33N 48°34' W 122°45'3 3.2
2014-Oct-24 10:33N 48°37' W 122°45'5 4.6
2014-Oct-24 09:33N 48°42' W 122°44'8 6.1
2014-Oct-24 08:10N 48°47' W 122°54'4 7.1
2014-Oct-24 07:33N 48°50' W 122°59'7 7.2
2014-Oct-24 06:33N 48°53' W 123°09'8 7.6
2014-Oct-24 05:33N 48°59' W 123°17'8 7.6
2014-Oct-24 04:33N 49°05' W 123°24'7 7.4
2014-Oct-24 03:33N 49°12' W 123°22'7 6.7
2014-Oct-24 02:33N 49°18' W 123°18'4 3.5
2014-Oct-24 01:33N 49°20' W 123°13'6 6.5
2014-Oct-24 00:33N 49°18' W 123°04'5 4.6
2014-Oct-23 23:33N 49°17' W 122°57'0 0.0
2014-Oct-23 22:33N 49°17' W 122°57'0 0.0
2014-Oct-23 21:33N 49°17' W 122°57'0 0.0
2014-Oct-23 20:30N 49°17' W 122°57'0 0.0
2014-Oct-23 19:33N 49°17' W 122°57'0 0.0
2014-Oct-23 18:33N 49°17' W 122°57'0 0.0
2014-Oct-23 17:06N 49°17' W 122°57'0 0.0
2014-Oct-23 15:27N 49°17' W 122°57'0 0.0
2014-Oct-23 14:33N 49°17' W 122°57'0 0.0
2014-Oct-23 13:33N 49°17' W 122°57'0 0.1
2014-Oct-23 12:34N 49°18' W 122°57'0 0.4
2014-Oct-23 11:33N 49°18' W 122°58'0 0.0
2014-Oct-23 10:29N 49°18' W 122°58'0 0.0
2014-Oct-23 09:32N 49°18' W 122°58'0 0.0
2014-Oct-23 08:32N 49°18' W 122°58'0 0.0
2014-Oct-23 07:32N 49°18' W 122°58'0 0.0
2014-Oct-23 06:32N 49°18' W 122°58'0 0.0
2014-Oct-23 05:32N 49°18' W 122°58'0 0.0
2014-Oct-23 04:32N 49°18' W 122°58'0 0.0
2014-Oct-23 03:32N 49°18' W 122°58'0 0.0
2014-Oct-23 02:32N 49°18' W 122°58'0 0.0
2014-Oct-23 01:32N 49°18' W 122°58'0 0.0
2014-Oct-23 00:32N 49°18' W 122°58'0 0.0
2014-Oct-22 23:32N 49°18' W 122°58'0 0.0
2014-Oct-22 22:32N 49°18' W 122°58'0 0.0
2014-Oct-22 21:32N 49°18' W 122°58'0 0.0
2014-Oct-22 20:32N 49°18' W 122°58'0 0.0
2014-Oct-22 19:32N 49°18' W 122°58'0 0.0
2014-Oct-22 18:32N 49°18' W 122°58'0 0.0
2014-Oct-22 17:32N 49°18' W 122°58'0 0.0
2014-Oct-22 16:32N 49°18' W 122°58'0 0.0
2014-Oct-22 15:32N 49°18' W 122°58'0 0.0
2014-Oct-22 14:32N 49°18' W 122°58'0 0.3
2014-Oct-22 13:34N 49°18' W 122°58'4 4.4
2014-Oct-22 12:33N 49°18' W 123°05'5 4.6
2014-Oct-22 11:33N 49°19' W 123°12'5 4.5
2014-Oct-22 10:34N 49°17' W 123°18'5 4.9
2014-Oct-22 09:34N 49°12' W 123°20'5 5.0
2014-Oct-22 08:34N 49°07' W 123°21'5 4.5
2014-Oct-22 07:34N 49°03' W 123°18'5 5.1
2014-Oct-22 06:32N 48°59' W 123°12'5 4.9
2014-Oct-22 05:33N 48°56' W 123°06'5 4.8
2014-Oct-22 04:33N 48°53' W 123°01'5 4.6
2014-Oct-22 03:33N 48°50' W 122°55'5 4.6
2014-Oct-22 02:31N 48°47' W 122°50'4 4.1
2014-Oct-22 01:32N 48°45' W 122°45'6 6.0
2014-Oct-22 00:34N 48°39' W 122°43'8 8.4
2014-Oct-21 23:33N 48°30' W 122°44'9 9.0
2014-Oct-21 22:33N 48°21' W 122°45'9 8.5
2014-Oct-21 21:33N 48°13' W 122°48'6 6.1
2014-Oct-21 20:29N 48°08' W 122°42'6 6.7
2014-Oct-21 19:33N 48°03' W 122°38'7 7.3
2014-Oct-21 18:36N 47°57' W 122°32'0 7.8
2014-Oct-21 18:33N 47°57' W 122°32'0 7.6
2014-Oct-21 18:31N 47°57' W 122°31'8 8.2
2014-Oct-21 17:33N 47°49' W 122°27'0 8.3
2014-Oct-21 17:31N 47°49' W 122°27'8 8.7
2014-Oct-21 16:33N 47°41' W 122°27'0 9.1
2014-Oct-21 16:31N 47°40' W 122°27'8 8.7
2014-Oct-21 15:34N 47°32' W 122°25'0 8.9
2014-Oct-21 15:31N 47°32' W 122°25'8 8.5
2014-Oct-21 14:33N 47°24' W 122°21'2 7.6
2014-Oct-21 14:20N 47°22' W 122°21'6 7.7
2014-Oct-21 13:33N 47°18' W 122°27'3 2.4
2014-Oct-21 12:24N 47°16' W 122°24'0 0.4
2014-Oct-21 11:33N 47°16' W 122°24'1 1.3
2014-Oct-21 10:32N 47°16' W 122°26'0 0.0
2014-Oct-21 09:32N 47°16' W 122°26'0 0.0
2014-Oct-21 08:32N 47°16' W 122°26'  
Track history (hours):
 
Tides and Currents Weather Stations Pressure Air Temp Water Temp Dewpoint Dewpoint Depression Visibility Wind Speed Wind Dir Waves Ship Positions

Tecumseh

Owner: SAUSE BROS INC, COOS BAY, OR. More information available from US FCC via Universal Licensing System and Coast Guard Vessel Documentation Center.

Last reported at 2014-Oct-31 07:33 UTC. Time now 2014-Oct-31 20:04 UTC.
Position N 45°33' W 122°42'.

Length 90 m; draft 4.9 m.

Type: Towing. MMSI: 367133160.

Date/timePositionNaut miles runAvg speedWind from/ knotsBaromVisibWave heightAir tempDewpointWater temp
2014-Oct-31 07:33N 45°33' W 122°42'0 0.0
2014-Oct-31 06:33N 45°33' W 122°42'0 0.0
2014-Oct-31 05:33N 45°33' W 122°42'0 0.0
2014-Oct-31 04:33N 45°33' W 122°42'0 0.0
2014-Oct-31 03:33N 45°33' W 122°42'0 0.0
2014-Oct-31 02:33N 45°33' W 122°42'0 0.0
2014-Oct-31 01:33N 45°33' W 122°42'0 0.0
2014-Oct-31 00:33N 45°33' W 122°42'0 0.0
2014-Oct-30 23:33N 45°33' W 122°42'0 0.0
2014-Oct-30 22:33N 45°33' W 122°42'0 0.0
2014-Oct-30 21:33N 45°33' W 122°42'0 0.0
2014-Oct-30 20:33N 45°33' W 122°42'0 0.0
2014-Oct-30 19:33N 45°33' W 122°42'0 0.0
2014-Oct-30 18:33N 45°33' W 122°42'0 0.0
2014-Oct-30 17:33N 45°33' W 122°42'0 0.0
2014-Oct-30 16:33N 45°33' W 122°42'0 0.0
2014-Oct-30 15:33N 45°33' W 122°42'0 0.0
2014-Oct-30 14:33N 45°33' W 122°42'0 0.0
2014-Oct-30 13:33N 45°33' W 122°42'0 0.0
2014-Oct-30 12:33N 45°33' W 122°42'0 0.0
2014-Oct-30 11:33N 45°33' W 122°42'0 0.0
2014-Oct-30 10:33N 45°33' W 122°42'0 0.0
2014-Oct-30 09:33N 45°33' W 122°42'0 0.0
2014-Oct-30 08:33N 45°33' W 122°42'0 0.0
2014-Oct-30 07:33N 45°33' W 122°42'0 0.0
2014-Oct-30 06:33N 45°33' W 122°42'0 0.0
2014-Oct-30 05:32N 45°33' W 122°42'0 0.0
2014-Oct-30 04:33N 45°33' W 122°42'0 0.0
2014-Oct-30 03:33N 45°33' W 122°42'0 0.0
2014-Oct-30 02:33N 45°33' W 122°42'0 0.0
2014-Oct-30 01:33N 45°33' W 122°42'0 0.0
2014-Oct-30 00:33N 45°33' W 122°42'0 0.0
2014-Oct-29 23:33N 45°33' W 122°42'0 0.0
2014-Oct-29 22:33N 45°33' W 122°42'0 0.0
2014-Oct-29 21:33N 45°33' W 122°42'0 0.0
2014-Oct-29 20:33N 45°33' W 122°42'0 0.0
2014-Oct-29 19:33N 45°33' W 122°42'0 0.0
2014-Oct-29 18:33N 45°33' W 122°42'0 0.0
2014-Oct-29 17:33N 45°33' W 122°42'0 0.0
2014-Oct-29 16:33N 45°33' W 122°42'0 0.0
2014-Oct-29 15:33N 45°33' W 122°42'0 0.0
2014-Oct-29 14:33N 45°33' W 122°42'0 0.0
2014-Oct-29 13:33N 45°33' W 122°42'0 0.0
2014-Oct-29 12:33N 45°33' W 122°42'0 0.0
2014-Oct-29 11:33N 45°33' W 122°42'0 0.0
2014-Oct-29 10:33N 45°33' W 122°42'0 0.0
2014-Oct-29 09:33N 45°33' W 122°42'4 3.9
2014-Oct-29 08:33N 45°36' W 122°46'8 8.3
2014-Oct-29 07:33N 45°44' W 122°46'9 9.0
2014-Oct-29 06:33N 45°53' W 122°48'9 9.1
2014-Oct-29 05:33N 46°01' W 122°52'8 8.3
2014-Oct-29 04:33N 46°08' W 122°60'9 8.7
2014-Oct-29 03:33N 46°11' W 123°12'8 8.5
2014-Oct-29 02:33N 46°09' W 123°24'8 8.2
2014-Oct-29 01:33N 46°16' W 123°31'10 9.7
2014-Oct-29 00:33N 46°14' W 123°44'9 9.1
2014-Oct-28 23:33N 46°13' W 123°57'9 8.7
2014-Oct-28 22:33N 46°13' W 124°10'7 7.3
2014-Oct-28 21:33N 46°20' W 124°14'8 8.2
2014-Oct-28 20:33N 46°28' W 124°16'8 7.9
2014-Oct-28 19:33N 46°36' W 124°18'8 7.8
2014-Oct-28 18:33N 46°44' W 124°19'8 7.8
2014-Oct-28 17:33N 46°51' W 124°21'8 7.9
2014-Oct-28 16:33N 46°59' W 124°24'77 6.9
2014-Oct-28 05:24N 48°14' W 124°52'910.2
2014-Oct-28 04:32N 48°23' W 124°49'9 8.9
2014-Oct-28 03:34N 48°24' W 124°36'1211.9
2014-Oct-28 02:33N 48°19' W 124°20'6 5.9
2014-Oct-28 01:33N 48°16' W 124°12'4 3.5
2014-Oct-28 00:30N 48°15' W 124°07'4 4.0
2014-Oct-27 23:27N 48°13' W 124°02'2 2.1
2014-Oct-27 22:30N 48°13' W 123°59'5 4.3
2014-Oct-27 21:26N 48°15' W 124°05'3 3.9
2014-Oct-27 20:33N 48°16' W 124°09'4 3.5
2014-Oct-27 19:31N 48°18' W 124°15'3 3.3
2014-Oct-27 18:33N 48°19' W 124°19'0 0.4
2014-Oct-27 17:33N 48°19' W 124°19'4 4.3
2014-Oct-27 16:33N 48°17' W 124°13'3 3.5
2014-Oct-27 15:33N 48°15' W 124°08'3 2.8
2014-Oct-27 14:29N 48°14' W 124°04'3 2.7
2014-Oct-27 13:28N 48°13' W 124°00'3 3.7
2014-Oct-27 12:32N 48°15' W 124°05'6 6.2
2014-Oct-27 11:33N 48°18' W 124°13'6 6.3
2014-Oct-27 10:34N 48°21' W 124°21'2 2.1
2014-Oct-27 09:33N 48°20' W 124°24'3 3.4
2014-Oct-27 08:34N 48°19' W 124°20'4 4.4
2014-Oct-27 07:33N 48°17' W 124°14'5 4.8
2014-Oct-27 06:33N 48°15' W 124°07'5 4.9
2014-Oct-27 05:31N 48°13' W 124°00'5 5.4
2014-Oct-27 04:33N 48°12' W 123°53'5 5.4
2014-Oct-27 03:33N 48°12' W 123°45'5 4.9
2014-Oct-27 02:33N 48°12' W 123°38'4 4.2
2014-Oct-27 01:33N 48°12' W 123°31'3 3.2
2014-Oct-27 00:33N 48°11' W 123°26'3 2.6
2014-Oct-26 23:33N 48°11' W 123°22'2 2.5
2014-Oct-26 22:33N 48°11' W 123°19'3 2.9
2014-Oct-26 21:33N 48°12' W 123°14'3 3.4
2014-Oct-26 20:33N 48°12' W 123°09'4 4.2
2014-Oct-26 19:33N 48°13' W 123°03'5 4.8
2014-Oct-26 18:32N 48°12' W 122°56'6 6.0
2014-Oct-26 17:32N 48°11' W 122°47'9 7.9
2014-Oct-26 16:23N 48°04' W 122°38'4 7.6
2014-Oct-26 15:51N 48°00' W 122°36'2 7.4
2014-Oct-26 15:33N 47°59' W 122°35'2 8.1
2014-Oct-26 15:21N 47°57' W 122°33'5 6.1
2014-Oct-26 14:33N 47°54' W 122°28'0 6.4
2014-Oct-26 14:31N 47°53' W 122°28'7 7.0
2014-Oct-26 13:33N 47°47' W 122°26'0 6.7
2014-Oct-26 13:31N 47°47' W 122°26'7 7.1
2014-Oct-26 12:34N 47°40' W 122°27'0 5.9
2014-Oct-26 12:30N 47°40' W 122°27'6 6.7
2014-Oct-26 11:34N 47°33' W 122°26'0 6.0
2014-Oct-26 11:30N 47°33' W 122°26'6 6.7
2014-Oct-26 10:34N 47°27' W 122°23'0 7.3
2014-Oct-26 10:30N 47°26' W 122°23'5 5.8
2014-Oct-26 09:34N 47°21' W 122°24'4 4.0
2014-Oct-26 08:33N 47°17' W 122°26'2 1.5
2014-Oct-26 07:12N 47°16' W 122°24'0 0.1
2014-Oct-26 06:33N 47°16' W 122°24'2 1.5
2014-Oct-26 05:33N 47°16' W 122°26'0 0.0
2014-Oct-26 04:33N 47°16' W 122°26'0 0.0
2014-Oct-26 03:33N 47°16' W 122°26'0 0.0
2014-Oct-26 02:30N 47°16' W 122°26'0 0.0
2014-Oct-26 01:27N 47°16' W 122°26'0 0.0
2014-Oct-26 00:33N 47°16' W 122°26'0 0.0
2014-Oct-25 23:33N 47°16' W 122°26'0 0.0
2014-Oct-25 22:33N 47°16' W 122°26'0 0.0
2014-Oct-25 21:33N 47°16' W 122°26'0 0.0
2014-Oct-25 20:24N 47°16' W 122°26'0 0.0
2014-Oct-25 19:30N 47°16' W 122°26'0 0.0
2014-Oct-25 18:33N 47°16' W 122°26'0 0.0
2014-Oct-25 17:24N 47°16' W 122°26'0 0.0
2014-Oct-25 16:33N 47°16' W 122°26'0 0.0
2014-Oct-25 15:30N 47°16' W 122°26'0 0.0
2014-Oct-25 14:27N 47°16' W 122°26'0 0.0
2014-Oct-25 13:27N 47°16' W 122°26'0 0.0
2014-Oct-25 12:33N 47°16' W 122°26'0 0.0
2014-Oct-25 11:30N 47°16' W 122°26'0 0.0
2014-Oct-25 10:33N 47°16' W 122°26'0 0.0
2014-Oct-25 09:33N 47°16' W 122°26'0 0.0
2014-Oct-25 08:24N 47°16' W 122°26'0 0.0
2014-Oct-25 06:15N 47°16' W 122°26'1 0.7
2014-Oct-25 04:33N 47°17' W 122°25'1 0.6
2014-Oct-25 03:15N 47°16' W 122°24'1 1.8
2014-Oct-25 02:33N 47°17' W 122°25'1 1.3
2014-Oct-25 01:46N 47°17' W 122°27'1 4.4
2014-Oct-25 01:33N 47°18' W 122°28'6 6.1
2014-Oct-25 00:33N 47°23' W 122°22'2 6.6
2014-Oct-25 00:11N 47°25' W 122°23'4 7.1
2014-Oct-24 23:33N 47°29' W 122°26'0 6.6
2014-Oct-24 23:32N 47°29' W 122°26'7 7.1
2014-Oct-24 22:33N 47°36' W 122°28'0 6.5
2014-Oct-24 22:31N 47°36' W 122°28'7 6.9
2014-Oct-24 21:33N 47°43' W 122°28'0 6.3
2014-Oct-24 21:31N 47°43' W 122°27'7 7.0
2014-Oct-24 20:33N 47°50' W 122°28'3 6.8
2014-Oct-24 20:10N 47°53' W 122°29'4 6.5
2014-Oct-24 19:33N 47°56' W 122°32'0 6.0
2014-Oct-24 19:30N 47°56' W 122°33'6 5.9
2014-Oct-24 18:33N 48°01' W 122°38'15 4.7
2014-Oct-24 15:17N 48°14' W 122°49'11 6.4
2014-Oct-24 13:30N 48°25' W 122°45'5 5.2
2014-Oct-24 12:33N 48°30' W 122°45'4 3.8
2014-Oct-24 11:33N 48°34' W 122°45'3 3.2
2014-Oct-24 10:33N 48°37' W 122°45'5 4.6
2014-Oct-24 09:33N 48°42' W 122°44'8 6.1
2014-Oct-24 08:10N 48°47' W 122°54'4 7.1
2014-Oct-24 07:33N 48°50' W 122°59'7 7.2
2014-Oct-24 06:33N 48°53' W 123°09'8 7.6
2014-Oct-24 05:33N 48°59' W 123°17'8 7.6
2014-Oct-24 04:33N 49°05' W 123°24'7 7.4
2014-Oct-24 03:33N 49°12' W 123°22'7 6.7
2014-Oct-24 02:33N 49°18' W 123°18'4 3.5
2014-Oct-24 01:33N 49°20' W 123°13'6 6.5
2014-Oct-24 00:33N 49°18' W 123°04'5 4.6
2014-Oct-23 23:33N 49°17' W 122°57'0 0.0
2014-Oct-23 22:33N 49°17' W 122°57'0 0.0
2014-Oct-23 21:33N 49°17' W 122°57'0 0.0
2014-Oct-23 20:30N 49°17' W 122°57'0 0.0
2014-Oct-23 19:33N 49°17' W 122°57'0 0.0
2014-Oct-23 18:33N 49°17' W 122°57'0 0.0
2014-Oct-23 17:06N 49°17' W 122°57'0 0.0
2014-Oct-23 15:27N 49°17' W 122°57'0 0.0
2014-Oct-23 14:33N 49°17' W 122°57'0 0.0
2014-Oct-23 13:33N 49°17' W 122°57'0 0.1
2014-Oct-23 12:34N 49°18' W 122°57'0 0.4
2014-Oct-23 11:33N 49°18' W 122°58'0 0.0
2014-Oct-23 10:29N 49°18' W 122°58'0 0.0
2014-Oct-23 09:32N 49°18' W 122°58'0 0.0
2014-Oct-23 08:32N 49°18' W 122°58'0 0.0
2014-Oct-23 07:32N 49°18' W 122°58'0 0.0
2014-Oct-23 06:32N 49°18' W 122°58'0 0.0
2014-Oct-23 05:32N 49°18' W 122°58'0 0.0
2014-Oct-23 04:32N 49°18' W 122°58'0 0.0
2014-Oct-23 03:32N 49°18' W 122°58'0 0.0
2014-Oct-23 02:32N 49°18' W 122°58'0 0.0
2014-Oct-23 01:32N 49°18' W 122°58'0 0.0
2014-Oct-23 00:32N 49°18' W 122°58'0 0.0
2014-Oct-22 23:32N 49°18' W 122°58'0 0.0
2014-Oct-22 22:32N 49°18' W 122°58'0 0.0
2014-Oct-22 21:32N 49°18' W 122°58'0 0.0
2014-Oct-22 20:32N 49°18' W 122°58'0 0.0
2014-Oct-22 19:32N 49°18' W 122°58'0 0.0
2014-Oct-22 18:32N 49°18' W 122°58'0 0.0
2014-Oct-22 17:32N 49°18' W 122°58'0 0.0
2014-Oct-22 16:32N 49°18' W 122°58'0 0.0
2014-Oct-22 15:32N 49°18' W 122°58'0 0.0
2014-Oct-22 14:32N 49°18' W 122°58'0 0.3
2014-Oct-22 13:34N 49°18' W 122°58'4 4.4
2014-Oct-22 12:33N 49°18' W 123°05'5 4.6
2014-Oct-22 11:33N 49°19' W 123°12'5 4.5
2014-Oct-22 10:34N 49°17' W 123°18'5 4.9
2014-Oct-22 09:34N 49°12' W 123°20'5 5.0
2014-Oct-22 08:34N 49°07' W 123°21'5 4.5
2014-Oct-22 07:34N 49°03' W 123°18'5 5.1
2014-Oct-22 06:32N 48°59' W 123°12'5 4.9
2014-Oct-22 05:33N 48°56' W 123°06'5 4.8
2014-Oct-22 04:33N 48°53' W 123°01'5 4.6
2014-Oct-22 03:33N 48°50' W 122°55'5 4.6
2014-Oct-22 02:31N 48°47' W 122°50'4 4.1
2014-Oct-22 01:32N 48°45' W 122°45'6 6.0
2014-Oct-22 00:34N 48°39' W 122°43'8 8.4
2014-Oct-21 23:33N 48°30' W 122°44'9 9.0
2014-Oct-21 22:33N 48°21' W 122°45'9 8.5
2014-Oct-21 21:33N 48°13' W 122°48'6 6.1
2014-Oct-21 20:29N 48°08' W 122°42'6 6.7
2014-Oct-21 19:33N 48°03' W 122°38'7 7.3
2014-Oct-21 18:36N 47°57' W 122°32'0 7.8
2014-Oct-21 18:33N 47°57' W 122°32'0 7.6
2014-Oct-21 18:31N 47°57' W 122°31'8 8.2
2014-Oct-21 17:33N 47°49' W 122°27'0 8.3
2014-Oct-21 17:31N 47°49' W 122°27'8 8.7
2014-Oct-21 16:33N 47°41' W 122°27'0 9.1
2014-Oct-21 16:31N 47°40' W 122°27'8 8.7
2014-Oct-21 15:34N 47°32' W 122°25'0 8.9
2014-Oct-21 15:31N 47°32' W 122°25'8 8.5
2014-Oct-21 14:33N 47°24' W 122°21'2 7.6
2014-Oct-21 14:20N 47°22' W 122°21'6 7.7
2014-Oct-21 13:33N 47°18' W 122°27'3 2.4
2014-Oct-21 12:24N 47°16' W 122°24'0 0.4
2014-Oct-21 11:33N 47°16' W 122°24'1 1.3
2014-Oct-21 10:32N 47°16' W 122°26'0 0.0
2014-Oct-21 09:32N 47°16' W 122°26'0 0.0
2014-Oct-21 08:32N 47°16' W 122°26'  

Dump ship's entire track history